Airfield :
LOGIN :

Register | Disclaimer

   EN    FR    IT 

 










Legend :    VFR   Marginal VFR   IFR   Intensive IFR   Very Intensive IFR
Visi :
Ceiling :
>= 8 km
>= 3000ft
5 to 8 km
1000 to 3000 ft
1500m to 5 km
500 to 1000 ft
800 to 1500m
200 to 500 ft
< 800m
< 200 ft
Symbols :   Thunderstorms  Fog  Heavy snow  Heavy precipitations  Wind > 20 kt
SIGMETs :     Misc.  Thunderstorms  Icing  Turbulence  Mountain Waves  Volcanic Ashes







- Airport Elevation : 226 ft
- IATA code : BEX


EGUB - RAF Benson

CURRENT METAR :
  • 190750Z AUTO 36002KT 4500 // BKN001/// SCT140/// 10/10 Q1009

EXPIRED METARs :
  • 190650Z AUTO 00000KT 0550 // VV/// 08/08 Q1009
  • 190550Z AUTO 00000KT 0100 // VV/// 07/07 Q1009

TAF TAF EGUB
Valid from the 18 at 15:00 until the 19 at 09:00 UTC


181355Z 1815/1909 VRB03KT 9999 SCT030
BECMG 1900/1903 6000 BR
PROB30 1903/1907 0200 FG BKN000
BECMG 1907/1909 9999 NSW
ATIS : +44 1491-837766 (x7524)
No reported NOTAMs for that airfield.



MET'MAP, your aeronautical weather chart ! - Copyright ORBIFLY December 2007 - Disclaimer

ORBIFLY MET'MAP TEAM :

Programming & Development : Alexandra Zaïnal
Concept & Development : Baudouin d'Aumeries
Co-Development & Prog : Marc-Olivier Méhu
Technical & hardware support : Manuel Goepfert

Contact : metmap@orbifly.com




SOURCES & CREDITS :

   NOAA